This is the latest recevied weather packets stored in our database for station/object GW1468. If no packets are shown the sender has not sent any weather packets the latest 10 day(s).
| Time | Temp. | Humidity | Pressure | Rain* | Wind** | Luminosity | Snow |
|---|---|---|---|---|---|---|---|
| 1777972872 | 7.22° C | 99% | - | 0 mm | - | - | - |
| 1777972173 | 7.22° C | 99% | - | 0 mm | - | - | - |
| 1777971810 | 7.22° C | 99% | - | 0 mm | - | - | - |
| 1777967849 | 7.78° C | 99% | - | 0 mm | - | - | - |
| 1777967471 | 7.78° C | 99% | - | 0 mm | - | - | - |
| 1777966779 | 7.78° C | 99% | - | 0 mm | - | - | - |
| 1777959189 | 8.89° C | 99% | - | 0 mm | - | - | - |
| 1777958137 | 8.89° C | 99% | - | 0 mm | - | - | - |
| 1777949863 | 11.11° C | 92% | - | 0.76 mm | - | - | - |
| 1777946966 | 12.78° C | 88% | - | 0.76 mm | - | - | - |
| 1777946597 | 12.78° C | 87% | - | 0.76 mm | - | - | - |
| 1777943736 | 14.44° C | 81% | - | 0.76 mm | - | - | - |
| 1777940113 | 16.67° C | 70% | - | 0.76 mm | - | - | - |
| 1777939035 | 17.22° C | 72% | - | 0.76 mm | - | - | - |
| 1777937621 | 18.89° C | 64% | - | 0.76 mm | - | - | - |
| 1777935107 | 22.78° C | 47% | - | 0.76 mm | - | - | - |
| 1777934376 | 23.33° C | 44% | - | 0.76 mm | - | - | - |
| 1777933996 | 23.33° C | 44% | - | 0.76 mm | - | - | - |
| 1777932196 | 24.44° C | 46% | - | 0.76 mm | - | - | - |
| 1777929328 | 24.44° C | 43% | - | 0.76 mm | - | - | - |
| 1777928990 | 24.44° C | 42% | - | 0.76 mm | - | - | - |
| 1777927172 | 25° C | 44% | - | 0.76 mm | - | - | - |
| 1777925741 | 23.33° C | 47% | - | 0.76 mm | - | - | - |
| 1777923576 | 22.22° C | 48% | - | 0.76 mm | - | - | - |
| 1777922842 | 22.22° C | 49% | - | 0.76 mm | - | - | - |
* Rain since midnight (hover to see other rain measurements)
** Current wind speed in m/s (hover to see current wind gust speed)